Time;durP1;ratioP1;P1;durP2;ratioP2;P2;SDS_P1;SDS_P2;PMS_P1;PMS_P2;Temp;Humidity;BMP_temperature;BMP_pressure;BME280_temperature;BME280_humidity;BME280_pressure;Samples;Min_cycle;Max_cycle;Signal;HPM_P1;HPM_P2
2023/11/26 00:00:10;;;;;;;0.73;0.73;;;;;;;1.55;100.00;92598.97;2083818;28;20037;-79
2023/11/26 00:01:16;;;;;;;1.20;1.10;;;;;;;1.43;100.00;92595.53;2095015;28;20028;-75
2023/11/26 00:02:17;;;;;;;1.05;0.80;;;;;;;1.57;100.00;92592.19;2082865;28;20715;-79
2023/11/26 00:03:18;;;;;;;0.68;0.68;;;;;;;1.63;100.00;92592.59;2085787;28;20099;-77
2023/11/26 00:04:21;;;;;;;0.60;0.60;;;;;;;1.61;100.00;92592.97;2096284;28;20031;-78
2023/11/26 00:05:22;;;;;;;0.85;0.70;;;;;;;1.61;100.00;92598.22;2081586;28;20883;-77
2023/11/26 00:06:24;;;;;;;0.70;0.70;;;;;;;1.56;100.00;92600.47;2088587;28;20024;-78
2023/11/26 00:07:25;;;;;;;0.88;0.80;;;;;;;1.50;100.00;92594.81;2071339;28;20591;-76
2023/11/26 00:08:26;;;;;;;1.00;0.70;;;;;;;1.64;100.00;92596.75;2074916;28;20032;-77
2023/11/26 00:09:27;;;;;;;0.80;0.60;;;;;;;1.64;100.00;92605.41;2101308;28;20107;-77
2023/11/26 00:10:28;;;;;;;0.50;0.43;;;;;;;1.62;100.00;92602.38;2078730;28;20111;-76
2023/11/26 00:11:29;;;;;;;0.73;0.60;;;;;;;1.58;100.00;92595.56;2084354;28;20028;-78
2023/11/26 00:12:30;;;;;;;0.63;0.60;;;;;;;1.62;100.00;92602.38;2087905;28;20025;-76
2023/11/26 00:13:31;;;;;;;0.50;0.50;;;;;;;1.61;100.00;92595.59;2086454;28;20044;-76
2023/11/26 00:14:36;;;;;;;1.00;0.80;;;;;;;1.73;100.00;92605.81;2098579;28;20025;-80
2023/11/26 00:15:37;;;;;;;0.60;0.60;;;;;;;1.44;100.00;92599.66;2082487;28;20032;-79
2023/11/26 00:16:38;;;;;;;0.50;0.50;;;;;;;1.47;100.00;92606.09;2103457;28;20034;-77
2023/11/26 00:17:40;;;;;;;1.05;0.60;;;;;;;1.33;100.00;92604.16;2091209;28;20027;-79
2023/11/26 00:18:40;;;;;;;0.40;0.40;;;;;;;1.35;100.00;92596.63;2084992;28;20033;-77
2023/11/26 00:19:41;;;;;;;0.75;0.40;;;;;;;1.36;100.00;92603.41;2095462;28;20078;-78
2023/11/26 00:20:42;;;;;;;1.27;0.60;;;;;;;1.66;100.00;92603.13;2085445;28;20078;-76
2023/11/26 00:21:43;;;;;;;0.30;0.30;;;;;;;1.51;100.00;92597.06;2094834;28;20103;-74
2023/11/26 00:22:45;;;;;;;0.50;0.50;;;;;;;1.38;100.00;92590.63;2084807;28;20067;-78
2023/11/26 00:23:46;;;;;;;0.50;0.50;;;;;;;1.51;100.00;92601.59;2087214;28;20028;-76
2023/11/26 00:24:47;;;;;;;1.33;0.60;;;;;;;1.47;100.00;92600.81;2096535;28;20036;-80
2023/11/26 00:25:48;;;;;;;2.05;0.60;;;;;;;1.51;100.00;92596.31;2085121;28;20106;-76
2023/11/26 00:26:49;;;;;;;0.80;0.57;;;;;;;1.49;100.00;92601.97;2096898;28;20035;-77
2023/11/26 00:27:50;;;;;;;0.70;0.50;;;;;;;1.53;100.00;92604.59;2081556;28;20025;-77
2023/11/26 00:28:51;;;;;;;0.47;0.40;;;;;;;1.54;100.00;92611.38;2069166;28;20036;-80
2023/11/26 00:29:52;;;;;;;0.55;0.47;;;;;;;1.42;100.00;92599.28;2087433;28;20021;-76
2023/11/26 00:30:54;;;;;;;0.60;0.60;;;;;;;1.30;100.00;92606.75;2080960;28;20020;-77
2023/11/26 00:31:58;;;;;;;0.50;0.50;;;;;;;1.55;100.00;92599.72;2082488;28;20056;-75
2023/11/26 00:32:59;;;;;;;0.40;0.40;;;;;;;1.38;100.00;92603.03;2096716;28;20024;-74
2023/11/26 00:34:00;;;;;;;0.90;0.70;;;;;;;1.28;100.00;92615.03;2090200;28;20020;-75
2023/11/26 00:35:01;;;;;;;0.40;0.40;;;;;;;1.40;100.00;92609.44;2098248;28;20050;-79
2023/11/26 00:36:02;;;;;;;0.57;0.45;;;;;;;1.46;100.00;92607.97;2086751;28;20068;-77
2023/11/26 00:37:03;;;;;;;0.50;0.50;;;;;;;1.25;100.00;92607.88;2088514;28;20509;-76
2023/11/26 00:38:04;;;;;;;0.40;0.40;;;;;;;1.26;100.00;92610.13;2097709;28;20126;-77
2023/11/26 00:39:08;;;;;;;0.75;0.55;;;;;;;1.41;100.00;92610.22;2089143;28;20417;-77
2023/11/26 00:40:12;;;;;;;0.77;0.50;;;;;;;1.22;100.00;92600.69;2093164;28;20491;-75
2023/11/26 00:41:13;;;;;;;0.60;0.50;;;;;;;1.35;100.00;92614.31;2081123;28;20446;-77
2023/11/26 00:42:14;;;;;;;0.50;0.50;;;;;;;1.30;100.00;92604.88;2082078;28;20889;-82
2023/11/26 00:43:15;;;;;;;0.70;0.70;;;;;;;1.33;100.00;92611.31;2096180;28;20021;-78
2023/11/26 00:44:16;;;;;;;1.15;0.57;;;;;;;1.28;100.00;92611.66;2084539;28;20032;-79
2023/11/26 00:45:18;;;;;;;2.10;0.80;;;;;;;1.34;100.00;92612.81;2087322;28;20424;-76
2023/11/26 00:46:18;;;;;;;2.60;0.60;;;;;;;1.32;100.00;92615.03;2093793;28;20408;-80
2023/11/26 00:47:20;;;;;;;3.85;0.95;;;;;;;1.37;100.00;92607.56;2093658;28;20032;-77
2023/11/26 00:48:21;;;;;;;0.95;0.60;;;;;;;1.65;100.00;92608.78;2094955;28;20033;-76
2023/11/26 00:49:22;;;;;;;0.85;0.65;;;;;;;1.64;100.00;92602.00;2084039;28;20100;-76
2023/11/26 00:50:23;;;;;;;0.70;0.70;;;;;;;1.57;100.00;92612.50;2091414;28;20539;-78
2023/11/26 00:51:25;;;;;;;0.93;0.82;;;;;;;1.53;100.00;92604.59;2098234;28;20079;-76
2023/11/26 00:52:26;;;;;;;1.58;0.70;;;;;;;1.50;100.00;92603.47;2092695;28;20031;-79
2023/11/26 00:53:27;;;;;;;0.95;0.70;;;;;;;1.53;100.00;92612.50;2098324;28;20020;-75
2023/11/26 00:54:28;;;;;;;0.85;0.85;;;;;;;1.33;100.00;92612.06;2092177;28;20016;-80
2023/11/26 00:55:29;;;;;;;0.95;0.90;;;;;;;1.42;100.00;92614.34;2093102;28;20051;-78
2023/11/26 00:56:32;;;;;;;2.65;0.90;;;;;;;1.36;100.00;92616.59;2095691;28;20112;-77
2023/11/26 00:57:33;;;;;;;0.90;0.90;;;;;;;1.42;100.00;92623.00;2087734;28;20024;-76
2023/11/26 00:58:34;;;;;;;1.02;1.00;;;;;;;1.44;100.00;92617.34;2090145;28;20021;-78
2023/11/26 00:59:35;;;;;;;1.38;0.90;;;;;;;1.45;100.00;92621.50;2085252;28;20044;-77
2023/11/26 01:00:36;;;;;;;3.17;1.10;;;;;;;1.60;100.00;92620.44;2089573;28;20020;-78
2023/11/26 01:01:39;;;;;;;2.28;1.00;;;;;;;1.61;100.00;92621.19;2097317;28;20024;-77
2023/11/26 01:02:41;;;;;;;2.17;1.00;;;;;;;1.50;100.00;92621.91;2077252;28;20053;-80
2023/11/26 01:03:42;;;;;;;2.72;1.65;;;;;;;1.47;100.00;92627.16;2091967;28;20017;-78
2023/11/26 01:04:43;;;;;;;2.47;1.10;;;;;;;1.43;100.00;92629.00;2097382;28;20024;-75
2023/11/26 01:05:44;;;;;;;4.20;1.17;;;;;;;1.39;100.00;92625.59;2090851;28;20033;-79
2023/11/26 01:06:45;;;;;;;1.70;1.50;;;;;;;1.41;100.00;92620.75;2097305;28;20032;-78
2023/11/26 01:07:46;;;;;;;1.20;1.10;;;;;;;1.38;100.00;92619.59;2092100;28;20028;-79
2023/11/26 01:08:47;;;;;;;1.63;1.20;;;;;;;1.41;100.00;92620.75;2092864;28;20020;-78
2023/11/26 01:09:48;;;;;;;2.45;1.35;;;;;;;1.47;100.00;92627.16;2097530;28;20040;-80
2023/11/26 01:10:50;;;;;;;4.70;1.15;;;;;;;1.42;100.00;92614.34;2082700;28;20794;-79
2023/11/26 01:11:51;;;;;;;4.40;1.30;;;;;;;1.40;100.00;92621.84;2087240;28;20021;-78
2023/11/26 01:12:53;;;;;;;2.40;1.25;;;;;;;1.44;100.00;92614.72;2096095;28;20071;-79
2023/11/26 01:13:53;;;;;;;4.60;1.15;;;;;;;1.24;100.00;92630.06;2078007;28;20051;-77
2023/11/26 01:14:55;;;;;;;1.20;1.10;;;;;;;1.36;100.00;92621.06;2084649;28;20042;-78
2023/11/26 01:15:56;;;;;;;3.20;1.30;;;;;;;1.32;100.00;92628.97;2090198;28;20786;-76
2023/11/26 01:16:58;;;;;;;1.30;1.13;;;;;;;1.34;100.00;92633.88;2085825;28;20024;-75
2023/11/26 01:17:59;;;;;;;1.77;1.13;;;;;;;1.38;100.00;92624.84;2089155;28;20017;-77
2023/11/26 01:19:00;;;;;;;1.05;1.00;;;;;;;1.48;100.00;92624.13;2080327;28;20028;-80
2023/11/26 01:20:04;;;;;;;0.93;0.90;;;;;;;1.46;100.00;92628.28;2097399;28;20087;-78
2023/11/26 01:21:06;;;;;;;1.25;0.95;;;;;;;1.39;100.00;92639.53;2083987;28;20027;-77
2023/11/26 01:22:07;;;;;;;1.40;0.90;;;;;;;1.45;100.00;92632.03;2087557;28;20063;-83
2023/11/26 01:23:08;;;;;;;0.82;0.82;;;;;;;1.30;100.00;92641.00;2095107;28;20079;-78
2023/11/26 01:24:09;;;;;;;3.92;1.23;;;;;;;1.28;100.00;92636.09;2083876;28;20107;-82
2023/11/26 01:25:10;;;;;;;1.20;1.00;;;;;;;1.25;100.00;92639.47;2095615;28;20049;-79
2023/11/26 01:26:11;;;;;;;1.33;1.00;;;;;;;1.41;100.00;92632.03;2089100;28;20108;-80
2023/11/26 01:27:12;;;;;;;1.40;1.08;;;;;;;1.29;100.00;92637.59;2086866;28;20024;-81
2023/11/26 01:28:14;;;;;;;1.83;1.00;;;;;;;1.18;100.00;92634.16;2097952;28;20028;-79
2023/11/26 01:29:15;;;;;;;3.30;1.10;;;;;;;1.22;100.00;92648.09;2081496;28;20032;-83
2023/11/26 01:30:16;;;;;;;1.00;0.90;;;;;;;1.30;100.00;92641.00;2097283;28;20039;-77
2023/11/26 01:31:17;;;;;;;1.55;0.80;;;;;;;1.54;100.00;92648.25;2089835;28;20079;-76
2023/11/26 01:32:18;;;;;;;0.90;0.90;;;;;;;1.46;100.00;92644.84;2088862;28;20052;-78
2023/11/26 01:33:20;;;;;;;1.20;0.90;;;;;;;1.48;100.00;92636.56;2095563;28;20086;-77
2023/11/26 01:34:21;;;;;;;1.10;0.70;;;;;;;1.53;100.00;92649.38;2090269;28;20054;-77
2023/11/26 01:35:22;;;;;;;1.05;0.80;;;;;;;1.40;100.00;92651.56;2096422;28;20016;-79
2023/11/26 01:36:23;;;;;;;0.73;0.60;;;;;;;1.28;100.00;92651.91;2091098;28;20020;-82
2023/11/26 01:37:24;;;;;;;0.82;0.70;;;;;;;1.32;100.00;92662.41;2092087;28;20108;-75
2023/11/26 01:38:25;;;;;;;1.88;0.70;;;;;;;1.38;100.00;92661.72;2095158;28;20587;-78
2023/11/26 01:39:26;;;;;;;0.60;0.60;;;;;;;1.36;100.00;92655.31;2074635;28;20514;-78
2023/11/26 01:40:27;;;;;;;0.85;0.85;;;;;;;1.47;100.00;92662.13;2082149;28;20517;-79
2023/11/26 01:41:28;;;;;;;1.33;0.80;;;;;;;1.57;100.00;92658.03;2095649;28;20020;-76
2023/11/26 01:42:29;;;;;;;1.85;0.70;;;;;;;1.51;100.00;92656.91;2083811;28;20104;-82
2023/11/26 01:43:30;;;;;;;1.77;0.80;;;;;;;1.43;100.00;92664.00;2092556;28;20033;-83
2023/11/26 01:44:32;;;;;;;0.93;0.60;;;;;;;1.46;100.00;92663.28;2053797;28;20485;-80
2023/11/26 01:45:33;;;;;;;1.52;0.60;;;;;;;1.51;100.00;92667.44;1981410;28;20020;-82
2023/11/26 01:46:34;;;;;;;0.90;0.60;;;;;;;1.58;100.00;92656.16;1986532;28;20397;-80
2023/11/26 01:47:35;;;;;;;0.93;0.50;;;;;;;1.49;100.00;92662.53;1999187;28;20056;-80
2023/11/26 01:48:37;;;;;;;0.80;0.60;;;;;;;1.43;100.00;92664.00;2003385;28;20663;-78
2023/11/26 01:49:38;;;;;;;1.55;0.57;;;;;;;1.39;100.00;92667.75;2015735;28;20059;-79
2023/11/26 01:50:40;;;;;;;0.70;0.60;;;;;;;1.50;100.00;92669.31;2021399;28;20089;-75
2023/11/26 01:51:42;;;;;;;0.43;0.43;;;;;;;1.49;100.00;92672.28;2021707;28;20113;-76
2023/11/26 01:52:43;;;;;;;0.60;0.43;;;;;;;1.39;100.00;92660.59;2036323;28;20028;-81
2023/11/26 01:53:48;;;;;;;0.43;0.40;;;;;;;1.25;100.00;92669.16;2033292;28;20045;-78
2023/11/26 01:54:49;;;;;;;0.55;0.50;;;;;;;1.32;100.00;92675.59;2042775;28;20121;-79
2023/11/26 01:55:50;;;;;;;0.30;0.30;;;;;;;1.33;100.00;92671.84;2054119;28;20448;-77
2023/11/26 01:56:52;;;;;;;0.35;0.35;;;;;;;1.47;100.00;92671.91;2058929;28;20038;-79
2023/11/26 01:57:53;;;;;;;0.47;0.47;;;;;;;1.32;100.00;92665.84;2070975;28;20116;-81
2023/11/26 01:58:56;;;;;;;0.50;0.50;;;;;;;1.31;100.00;92669.56;2085597;28;20485;-81
2023/11/26 01:59:57;;;;;;;1.48;0.40;;;;;;;1.32;100.00;92671.09;2094305;28;20025;-77
2023/11/26 02:00:58;;;;;;;0.40;0.40;;;;;;;1.50;100.00;92671.94;2093859;28;20104;-81
2023/11/26 02:01:59;;;;;;;0.70;0.60;;;;;;;1.35;100.00;92672.22;2094999;28;20019;-81
2023/11/26 02:03:00;;;;;;;0.68;0.63;;;;;;;1.34;100.00;92662.81;2095858;28;20493;-80
2023/11/26 02:04:26;;;;;;;1.67;0.50;;;;;;;1.56;100.00;92671.59;2095688;28;20051;-79
2023/11/26 02:05:27;;;;;;;0.75;0.65;;;;;;;1.59;100.00;92663.72;2085403;28;20108;-80
2023/11/26 02:06:30;;;;;;;1.48;0.90;;;;;;;1.48;100.00;92674.19;2089024;28;20023;-81
2023/11/26 02:07:31;;;;;;;0.93;0.65;;;;;;;1.41;100.00;92666.25;2095137;28;20095;-79
2023/11/26 02:08:32;;;;;;;1.52;1.02;;;;;;;1.34;100.00;92665.47;2088996;28;20047;-78
2023/11/26 02:09:34;;;;;;;1.58;1.13;;;;;;;1.41;100.00;92655.72;2095196;28;20505;-77
2023/11/26 02:10:35;;;;;;;5.15;1.75;;;;;;;1.36;100.00;92663.19;2091643;28;20029;-78
2023/11/26 02:11:46;;;;;;;1.20;1.10;;;;;;;1.35;100.00;92661.69;2093545;28;20024;-81
2023/11/26 02:13:06;;;;;;;2.53;1.13;;;;;;;1.41;100.00;92671.53;2093743;28;20779;-78
2023/11/26 02:14:07;;;;;;;1.77;1.13;;;;;;;1.42;100.00;92664.38;2093792;28;20576;-80
2023/11/26 02:15:09;;;;;;;1.40;1.30;;;;;;;1.39;100.00;92662.47;2095873;28;20017;-81
2023/11/26 02:16:10;;;;;;;1.40;1.30;;;;;;;1.36;100.00;92665.84;2084578;28;20033;-78
2023/11/26 02:17:12;;;;;;;4.05;1.02;;;;;;;1.40;100.00;92670.00;2080829;28;20486;-76
2023/11/26 02:18:14;;;;;;;1.73;1.55;;;;;;;1.48;100.00;92666.28;2089006;28;20016;-77
2023/11/26 02:19:25;;;;;;;4.13;1.10;;;;;;;1.40;100.00;92671.88;2092821;28;20029;-77
2023/11/26 02:20:27;;;;;;;2.33;1.00;;;;;;;1.23;100.00;92671.44;2080797;28;20021;-79
2023/11/26 02:21:27;;;;;;;1.00;0.90;;;;;;;1.42;100.00;92667.75;2080758;28;20018;-77
2023/11/26 02:24:30;;;;;;;;;;;;;;;0.56;100.00;92673.56;2145249;27;20121;-79
2023/11/26 02:25:31;;;;;;;2.50;1.00;;;;;;;0.56;100.00;92671.69;2128320;27;19915;-80
2023/11/26 02:26:32;;;;;;;0.80;0.80;;;;;;;0.68;100.00;92670.66;2111409;28;20038;-76
2023/11/26 02:27:33;;;;;;;1.52;0.80;;;;;;;0.65;100.00;92680.03;2115000;27;20384;-80
2023/11/26 02:28:36;;;;;;;0.65;0.65;;;;;;;0.57;100.00;92675.84;2113070;27;20027;-80
2023/11/26 02:29:38;;;;;;;0.98;0.70;;;;;;;0.56;100.00;92682.19;2012092;27;20038;-78
2023/11/26 02:30:39;;;;;;;1.02;0.73;;;;;;;0.49;100.00;92674.28;2026993;27;20608;-77
2023/11/26 02:31:41;;;;;;;0.85;0.70;;;;;;;0.40;100.00;92681.69;2023965;27;20039;-78
2023/11/26 02:32:42;;;;;;;0.70;0.70;;;;;;;0.67;100.00;92677.03;2040563;27;20721;-79
2023/11/26 02:33:43;;;;;;;0.60;0.60;;;;;;;0.69;100.00;92672.16;2047114;27;20133;-76
2023/11/26 02:34:44;;;;;;;0.98;0.70;;;;;;;0.65;100.00;92681.91;2038145;27;20023;-76
2023/11/26 02:35:44;;;;;;;0.80;0.80;;;;;;;0.70;100.00;92676.28;2036144;28;20032;-76
2023/11/26 02:36:45;;;;;;;1.35;0.68;;;;;;;0.61;100.00;92684.50;2048748;27;20917;-78
2023/11/26 02:37:47;;;;;;;0.68;0.68;;;;;;;0.83;100.00;92682.78;2059460;27;20710;-79
2023/11/26 02:38:48;;;;;;;0.60;0.60;;;;;;;0.80;100.00;92688.78;2051132;27;20027;-76
2023/11/26 02:39:49;;;;;;;0.60;0.60;;;;;;;0.69;100.00;92682.69;2054900;27;20494;-76
2023/11/26 02:40:50;;;;;;;1.50;0.60;;;;;;;0.76;100.00;92682.75;2067264;27;20030;-79
2023/11/26 02:41:51;;;;;;;0.95;0.70;;;;;;;0.77;100.00;92683.50;2078273;27;20521;-76
2023/11/26 02:42:52;;;;;;;0.60;0.60;;;;;;;0.90;100.00;92690.00;2079172;27;20031;-78
2023/11/26 02:43:53;;;;;;;0.60;0.60;;;;;;;0.79;100.00;92683.88;2088331;27;20079;-78
2023/11/26 02:44:54;;;;;;;0.50;0.50;;;;;;;0.88;100.00;92690.38;2096281;27;20058;-78
2023/11/26 02:45:56;;;;;;;0.60;0.60;;;;;;;0.84;100.00;92686.94;2085008;28;20059;-77
2023/11/26 02:46:58;;;;;;;0.80;0.50;;;;;;;0.92;100.00;92685.88;2103192;28;20019;-78
2023/11/26 02:47:59;;;;;;;0.52;0.52;;;;;;;0.72;100.00;92693.25;2116793;28;20019;-79
2023/11/26 02:49:00;;;;;;;2.60;0.80;;;;;;;0.74;100.00;92692.88;2122297;27;20023;-78
2023/11/26 02:50:04;;;;;;;0.60;0.60;;;;;;;0.78;100.00;92687.63;2136702;27;20063;-76
2023/11/26 02:51:05;;;;;;;0.70;0.70;;;;;;;0.83;100.00;92695.19;2123306;27;20019;-77
2023/11/26 02:52:05;;;;;;;1.25;0.65;;;;;;;0.72;100.00;92693.25;2123227;27;20034;-76
2023/11/26 02:53:06;;;;;;;0.73;0.60;;;;;;;0.98;100.00;92692.31;2136326;27;20026;-79
2023/11/26 02:54:08;;;;;;;0.75;0.55;;;;;;;0.81;100.00;92692.19;2123152;27;20023;-77
2023/11/26 02:55:09;;;;;;;0.95;0.80;;;;;;;0.61;100.00;92689.75;2115379;28;20070;-81
2023/11/26 02:56:11;;;;;;;1.30;0.75;;;;;;;0.56;100.00;92700.59;2121482;27;20026;-79
2023/11/26 02:57:12;;;;;;;1.05;0.80;;;;;;;0.46;100.00;92694.13;2123280;27;20023;-78
2023/11/26 02:58:13;;;;;;;1.50;1.20;;;;;;;0.36;100.00;92683.53;2123416;27;20064;-80
2023/11/26 02:59:14;;;;;;;1.95;1.30;;;;;;;0.52;100.00;92680.66;2131972;27;20099;-80
2023/11/26 03:00:16;;;;;;;2.45;1.30;;;;;;;0.55;100.00;92677.31;2138099;27;20032;-76
2023/11/26 03:01:19;;;;;;;3.35;1.33;;;;;;;0.56;100.00;92686.72;2133365;27;20498;-80
2023/11/26 03:02:19;;;;;;;3.97;1.00;;;;;;;0.63;100.00;92686.78;2125136;27;20491;-79
2023/11/26 03:03:20;;;;;;;5.38;1.63;;;;;;;0.54;100.00;92681.81;2127367;27;20068;-78
2023/11/26 03:04:23;;;;;;;2.50;1.15;;;;;;;0.51;100.00;92693.06;2134421;27;20023;-76
2023/11/26 03:05:24;;;;;;;2.90;1.60;;;;;;;0.52;100.00;92691.19;2125936;27;20014;-79
2023/11/26 03:06:26;;;;;;;1.80;1.20;;;;;;;0.50;100.00;92689.66;2125710;27;20022;-75
2023/11/26 03:07:27;;;;;;;2.20;1.50;;;;;;;0.49;100.00;92693.44;2138673;27;20471;-79
2023/11/26 03:08:38;;;;;;;2.75;1.40;;;;;;;0.60;100.00;92693.50;2136595;27;20411;-78
2023/11/26 03:12:56;;;;;;;3.00;1.40;;;;;;;0.49;100.00;92696.06;2134451;27;20023;-79
2023/11/26 03:13:40;;;;;;;4.47;1.40;;;;;;;0.54;100.00;92697.59;2133578;27;20352;-80
2023/11/26 03:14:41;;;;;;;4.82;1.73;;;;;;;0.64;100.00;92698.81;2115180;28;20088;-80
2023/11/26 03:15:44;;;;;;;4.95;1.88;;;;;;;0.47;100.00;92703.53;2114699;27;20153;-79
2023/11/26 03:16:46;;;;;;;5.30;1.67;;;;;;;0.65;100.00;92710.81;2133812;27;20035;-75
2023/11/26 03:17:46;;;;;;;1.55;1.45;;;;;;;0.51;100.00;92706.19;2123145;27;20036;-80
2023/11/26 03:18:49;;;;;;;5.00;1.92;;;;;;;0.53;100.00;92716.34;2124877;27;20038;-80
2023/11/26 03:19:49;;;;;;;2.53;1.90;;;;;;;0.54;100.00;92710.75;2132246;27;20373;-76
2023/11/26 03:20:52;;;;;;;4.28;1.77;;;;;;;0.46;100.00;92712.53;2125231;27;20042;-76
2023/11/26 03:21:54;;;;;;;3.97;1.50;;;;;;;0.62;100.00;92712.31;2117030;27;20544;-78
2023/11/26 03:22:55;;;;;;;3.20;1.70;;;;;;;0.64;100.00;92712.69;2116149;28;20067;-77
2023/11/26 03:23:56;;;;;;;3.80;1.80;;;;;;;0.62;100.00;92714.19;2116232;28;20047;-76
2023/11/26 03:24:57;;;;;;;2.80;1.70;;;;;;;0.52;100.00;92706.94;2122102;27;20844;-76
2023/11/26 03:25:58;;;;;;;1.88;1.70;;;;;;;0.75;100.00;92702.28;2124544;27;20043;-78
2023/11/26 03:26:59;;;;;;;3.35;1.65;;;;;;;0.60;100.00;92705.91;2127893;27;20079;-77
2023/11/26 03:28:00;;;;;;;4.85;1.70;;;;;;;0.56;100.00;92713.00;2130042;27;20060;-77
2023/11/26 03:29:01;;;;;;;3.65;2.20;;;;;;;0.54;100.00;92710.00;2126140;27;20110;-76
2023/11/26 03:30:02;;;;;;;3.60;1.83;;;;;;;0.67;100.00;92719.13;2124986;27;20023;-80
2023/11/26 03:31:03;;;;;;;3.05;1.77;;;;;;;0.70;100.00;92710.50;2124049;27;20544;-78
2023/11/26 03:32:05;;;;;;;1.80;1.40;;;;;;;0.51;100.00;92714.09;2122748;27;20022;-76
2023/11/26 03:33:07;;;;;;;1.42;1.20;;;;;;;0.65;100.00;92716.09;2112673;27;20027;-79
2023/11/26 03:34:20;;;;;;;2.38;1.55;;;;;;;0.64;100.00;92701.44;2116582;28;20555;-77
2023/11/26 03:35:21;;;;;;;3.53;1.40;;;;;;;0.68;100.00;92715.38;2115547;28;20094;-78
2023/11/26 03:36:22;;;;;;;2.70;1.40;;;;;;;0.69;100.00;92719.50;2120905;27;20403;-77
2023/11/26 03:37:23;;;;;;;3.97;1.42;;;;;;;0.72;100.00;92703.75;2109951;27;20080;-76
2023/11/26 03:38:24;;;;;;;2.20;1.30;;;;;;;0.65;100.00;92710.81;2118804;27;20371;-79
2023/11/26 03:39:25;;;;;;;2.72;1.55;;;;;;;0.58;100.00;92708.91;2118984;27;20023;-80
2023/11/26 03:40:26;;;;;;;1.63;1.50;;;;;;;0.52;100.00;92709.59;2119777;27;20545;-77
2023/11/26 03:41:26;;;;;;;2.65;1.27;;;;;;;0.66;100.00;92715.75;2120494;27;20027;-80
2023/11/26 03:42:27;;;;;;;2.70;1.50;;;;;;;0.61;100.00;92713.41;2121330;27;20015;-77
2023/11/26 03:43:30;;;;;;;2.25;1.60;;;;;;;0.52;100.00;92712.22;2117136;27;20024;-80
2023/11/26 03:44:31;;;;;;;1.42;1.15;;;;;;;0.65;100.00;92722.09;2119589;27;20391;-76
2023/11/26 03:45:32;;;;;;;1.90;1.50;;;;;;;0.55;100.00;92720.13;2123368;27;20364;-76
2023/11/26 03:46:35;;;;;;;3.03;1.40;;;;;;;0.49;100.00;92724.22;2117325;27;20092;-78
2023/11/26 03:47:36;;;;;;;3.15;1.40;;;;;;;0.71;100.00;92727.81;2118513;27;20021;-80
2023/11/26 03:48:38;;;;;;;3.10;1.60;;;;;;;0.68;100.00;92723.25;2122089;27;20050;-79
2023/11/26 03:49:39;;;;;;;3.13;1.30;;;;;;;0.83;100.00;92732.78;2118229;27;20723;-79
2023/11/26 03:50:40;;;;;;;5.93;1.67;;;;;;;0.74;100.00;92724.44;2116963;27;20121;-80
2023/11/26 03:51:41;;;;;;;2.85;1.85;;;;;;;0.74;100.00;92727.81;2116900;27;20027;-80
2023/11/26 03:52:43;;;;;;;3.47;1.98;;;;;;;0.70;100.00;92729.69;2118157;27;20539;-78
2023/11/26 03:53:44;;;;;;;2.55;1.58;;;;;;;0.78;100.00;92719.97;2118003;27;20457;-78
2023/11/26 03:54:47;;;;;;;2.05;1.55;;;;;;;0.66;100.00;92730.75;2117124;27;20229;-81
2023/11/26 03:55:49;;;;;;;4.15;1.45;;;;;;;0.72;100.00;92727.44;2116717;27;20028;-77
2023/11/26 03:56:50;;;;;;;1.70;1.20;;;;;;;0.83;100.00;92738.03;2119790;27;20023;-80
2023/11/26 03:57:51;;;;;;;3.10;1.83;;;;;;;0.77;100.00;92734.22;2116982;27;20548;-77
2023/11/26 03:58:52;;;;;;;2.40;1.40;;;;;;;0.71;100.00;92735.69;2118009;27;20641;-77
2023/11/26 03:59:53;;;;;;;3.25;1.35;;;;;;;0.62;100.00;92729.97;2119919;27;20096;-79
2023/11/26 04:00:54;;;;;;;1.98;1.30;;;;;;;0.51;100.00;92737.75;2119482;27;20023;-80
2023/11/26 04:01:55;;;;;;;6.25;1.70;;;;;;;0.58;100.00;92740.47;2118057;27;20027;-77
2023/11/26 04:02:56;;;;;;;1.83;1.40;;;;;;;0.64;100.00;92743.50;2102502;28;20024;-79
2023/11/26 04:03:58;;;;;;;4.03;1.25;;;;;;;0.66;100.00;92733.38;2110551;28;20016;-77
2023/11/26 04:04:59;;;;;;;2.03;1.70;;;;;;;0.62;100.00;92736.00;2120836;27;20030;-77
2023/11/26 04:06:00;;;;;;;7.07;1.60;;;;;;;0.55;100.00;92740.41;2119666;27;20446;-80
2023/11/26 04:07:02;;;;;;;3.13;1.73;;;;;;;0.40;100.00;92735.03;2120917;27;20023;-76
2023/11/26 04:08:03;;;;;;;4.38;1.85;;;;;;;0.52;100.00;92747.16;2117885;27;20181;-77
2023/11/26 04:09:04;;;;;;;4.70;1.70;;;;;;;0.53;100.00;92735.53;2121399;27;20019;-76
2023/11/26 04:10:08;;;;;;;9.35;2.80;;;;;;;0.61;100.00;92744.22;2122507;27;20023;-77
2023/11/26 04:11:09;;;;;;;2.67;1.83;;;;;;;0.55;100.00;92738.53;2107884;28;20038;-78
2023/11/26 04:12:10;;;;;;;5.38;1.98;;;;;;;0.66;100.00;92751.78;2111554;28;20186;-78
2023/11/26 04:13:11;;;;;;;5.20;1.83;;;;;;;0.75;100.00;92747.00;2118951;27;20069;-75
2023/11/26 04:14:53;;;;;;;4.93;2.00;;;;;;;0.62;100.00;92754.41;2110920;28;20102;-80
2023/11/26 04:17:58;;;;;;;4.43;1.75;;;;;;;0.73;100.00;92752.59;2120905;27;20055;-80
2023/11/26 04:18:59;;;;;;;4.18;1.70;;;;;;;0.79;100.00;92750.44;2118236;27;20023;-78
2023/11/26 04:20:00;;;;;;;5.78;2.15;;;;;;;0.57;100.00;92748.69;2119398;27;20495;-77
2023/11/26 04:21:01;;;;;;;3.88;1.70;;;;;;;0.69;100.00;92751.06;2118646;27;20042;-77
2023/11/26 04:22:03;;;;;;;5.82;2.08;;;;;;;0.79;100.00;92757.53;2108245;28;20016;-77
2023/11/26 04:23:04;;;;;;;3.75;2.00;;;;;;;0.80;100.00;92748.53;2114983;27;20076;-81
2023/11/26 04:24:05;;;;;;;7.68;1.95;;;;;;;0.73;100.00;92749.22;2124245;27;20821;-76
2023/11/26 04:25:06;;;;;;;4.00;1.95;;;;;;;0.79;100.00;92744.38;2126044;27;20031;-79
2023/11/26 04:26:08;;;;;;;5.85;2.10;;;;;;;0.83;100.00;92756.44;2129348;27;20467;-76
2023/11/26 04:27:12;;;;;;;6.97;2.40;;;;;;;0.78;100.00;92746.25;2118835;27;20069;-77
2023/11/26 04:28:13;;;;;;;4.22;2.30;;;;;;;0.83;100.00;92748.56;2120123;27;20106;-78
2023/11/26 04:29:14;;;;;;;4.40;2.13;;;;;;;0.73;100.00;92744.72;2118810;27;20042;-77
2023/11/26 04:30:14;;;;;;;6.82;2.45;;;;;;;0.69;100.00;92751.06;2116577;27;20019;-80
2023/11/26 04:31:16;;;;;;;6.78;1.98;;;;;;;0.76;100.00;92743.25;2128115;27;20030;-78
2023/11/26 04:32:17;;;;;;;7.35;2.05;;;;;;;0.76;100.00;92745.88;2118479;27;20168;-75
2023/11/26 04:33:18;;;;;;;7.43;2.17;;;;;;;0.76;100.00;92748.50;2112616;28;20024;-76
2023/11/26 04:34:19;;;;;;;4.30;2.45;;;;;;;0.63;100.00;92752.53;2110320;28;20020;-77
2023/11/26 04:35:20;;;;;;;8.07;2.13;;;;;;;0.73;100.00;92754.47;2110568;28;20016;-76
2023/11/26 04:36:21;;;;;;;7.30;2.53;;;;;;;0.64;100.00;92751.41;2118340;27;20457;-80
2023/11/26 04:37:22;;;;;;;3.63;2.05;;;;;;;0.69;100.00;92748.44;2130010;27;20393;-80
2023/11/26 04:38:23;;;;;;;4.95;2.60;;;;;;;0.60;100.00;92753.22;2116378;27;20442;-78
2023/11/26 04:39:24;;;;;;;6.55;2.42;;;;;;;0.72;100.00;92758.25;2117521;27;20369;-76
2023/11/26 04:40:25;;;;;;;5.82;2.15;;;;;;;0.71;100.00;92757.50;2065475;27;20130;-78
2023/11/26 04:41:26;;;;;;;3.80;2.00;;;;;;;0.72;100.00;92758.25;2023403;27;20240;-76
2023/11/26 04:42:27;;;;;;;4.40;1.63;;;;;;;0.74;100.00;92763.88;2022026;27;20109;-78
2023/11/26 04:43:28;;;;;;;6.25;2.30;;;;;;;0.79;100.00;92755.69;2028085;27;20591;-78
2023/11/26 04:44:30;;;;;;;1.83;1.73;;;;;;;0.82;100.00;92762.09;2031030;27;20068;-76
2023/11/26 04:45:30;;;;;;;5.03;2.17;;;;;;;0.73;100.00;92759.75;2036077;27;20019;-75
2023/11/26 04:46:31;;;;;;;4.82;2.10;;;;;;;0.71;100.00;92760.13;2032089;28;20035;-76
2023/11/26 04:47:35;;;;;;;6.28;2.30;;;;;;;0.58;100.00;92756.25;2042758;28;20119;-76
2023/11/26 04:48:36;;;;;;;4.03;2.05;;;;;;;0.75;100.00;92765.41;2058042;27;22632;-77
2023/11/26 04:49:37;;;;;;;4.70;2.20;;;;;;;0.74;100.00;92767.25;2058612;27;20068;-78
2023/11/26 04:50:38;;;;;;;6.72;2.47;;;;;;;0.53;100.00;92772.34;2067749;27;20027;-76
2023/11/26 04:51:39;;;;;;;6.82;2.88;;;;;;;0.62;100.00;92769.44;2084096;27;20476;-75
2023/11/26 04:52:40;;;;;;;3.30;2.50;;;;;;;0.60;100.00;92769.75;2077782;28;20035;-76
2023/11/26 04:53:41;;;;;;;2.97;2.17;;;;;;;0.63;100.00;92773.56;2089891;28;20649;-76
2023/11/26 04:54:42;;;;;;;5.68;2.00;;;;;;;0.72;100.00;92774.78;2093944;28;20027;-80
2023/11/26 04:55:43;;;;;;;3.63;2.05;;;;;;;0.68;100.00;92778.50;2096859;28;20023;-79
2023/11/26 04:56:44;;;;;;;5.97;2.20;;;;;;;0.62;100.00;92780.69;2117633;27;20359;-78
2023/11/26 04:57:49;;;;;;;5.32;2.38;;;;;;;0.75;100.00;92773.31;2115678;27;20028;-77